Time;durP1;ratioP1;P1;durP2;ratioP2;P2;SDS_P1;SDS_P2;PMS_P1;PMS_P2;Temp;Humidity;BMP_temperature;BMP_pressure;BME280_temperature;BME280_humidity;BME280_pressure;Samples;Min_cycle;Max_cycle;Signal;HPM_P1;HPM_P2
2022/07/26 00:00:21;;;;;;;2.70;1.13;;;24.90;99.90;;;;;;1043645;28;20021;-62
2022/07/26 00:00:51;;;;;;;3.05;1.40;;;24.80;99.90;;;;;;1043626;28;20100;-62
2022/07/26 00:01:22;;;;;;;3.57;1.80;;;24.80;99.90;;;;;;1043681;28;20460;-62
2022/07/26 00:01:53;;;;;;;3.67;1.70;;;24.80;99.90;;;;;;1042657;28;20556;-63
2022/07/26 00:02:23;;;;;;;2.87;1.17;;;24.80;99.90;;;;;;1042257;28;20307;-62
2022/07/26 00:02:54;;;;;;;4.67;1.10;;;24.80;99.90;;;;;;1043536;28;20013;-63
2022/07/26 00:03:24;;;;;;;3.07;1.17;;;24.80;99.90;;;;;;1043128;28;20029;-62
2022/07/26 00:03:55;;;;;;;5.10;1.60;;;24.80;99.90;;;;;;1043200;28;20017;-62
2022/07/26 00:04:26;;;;;;;4.63;1.87;;;24.80;99.90;;;;;;1043098;28;20275;-62
2022/07/26 00:04:57;;;;;;;3.30;1.20;;;24.80;99.90;;;;;;1043256;28;20447;-62
2022/07/26 00:05:28;;;;;;;4.03;1.50;;;24.80;99.90;;;;;;1043460;28;20377;-62
2022/07/26 00:05:58;;;;;;;5.10;1.95;;;24.80;99.90;;;;;;1043518;28;20028;-62
2022/07/26 00:06:29;;;;;;;3.27;1.50;;;24.80;99.90;;;;;;1043569;28;20387;-62
2022/07/26 00:07:00;;;;;;;5.30;1.67;;;24.80;99.90;;;;;;1043691;28;20032;-62
2022/07/26 00:07:30;;;;;;;2.67;1.30;;;24.80;99.90;;;;;;1043311;28;20490;-61
2022/07/26 00:08:10;;;;;;;4.20;1.53;;;24.80;99.90;;;;;;1043403;28;20039;-63
2022/07/26 00:08:41;;;;;;;5.30;1.63;;;24.80;99.90;;;;;;1043526;28;20021;-63
2022/07/26 00:09:11;;;;;;;2.80;1.33;;;24.80;99.90;;;;;;1043483;28;20017;-63
2022/07/26 00:09:42;;;;;;;6.53;1.90;;;24.80;99.90;;;;;;1043469;28;20025;-63
2022/07/26 00:10:13;;;;;;;5.07;1.80;;;24.80;99.90;;;;;;1043478;28;20467;-63
2022/07/26 00:10:47;;;;;;;2.90;1.65;;;24.70;99.90;;;;;;1043423;28;20109;-63
2022/07/26 00:11:19;;;;;;;5.15;1.55;;;24.70;99.90;;;;;;1043442;28;20013;-63
2022/07/26 00:11:50;;;;;;;4.55;1.75;;;24.70;99.90;;;;;;1043318;28;20028;-61
2022/07/26 00:12:21;;;;;;;2.35;1.20;;;24.70;99.90;;;;;;1043467;28;20013;-62
2022/07/26 00:12:52;;;;;;;2.40;1.20;;;24.70;99.90;;;;;;1042938;28;20091;-62
2022/07/26 00:13:22;;;;;;;3.13;1.67;;;24.70;99.90;;;;;;1039065;28;20018;-62
2022/07/26 00:13:53;;;;;;;4.40;1.50;;;24.70;99.90;;;;;;1038708;28;20041;-61
2022/07/26 00:14:24;;;;;;;2.23;1.43;;;24.70;99.90;;;;;;1039503;28;20028;-63
2022/07/26 00:14:54;;;;;;;4.90;1.40;;;24.70;99.90;;;;;;1043070;28;20013;-62
2022/07/26 00:15:26;;;;;;;2.80;1.20;;;24.70;99.90;;;;;;1043656;28;20013;-62
2022/07/26 00:15:56;;;;;;;2.70;1.45;;;24.70;99.90;;;;;;1043254;28;20023;-62
2022/07/26 00:16:27;;;;;;;3.80;1.10;;;24.70;99.90;;;;;;1043676;28;20024;-62
2022/07/26 00:16:58;;;;;;;3.20;1.47;;;24.70;99.90;;;;;;1043157;28;20024;-62
2022/07/26 00:17:29;;;;;;;2.10;1.30;;;24.70;99.90;;;;;;1043738;28;20021;-62
2022/07/26 00:17:59;;;;;;;3.37;1.53;;;24.70;99.90;;;;;;1042970;28;20133;-62
2022/07/26 00:18:30;;;;;;;2.27;1.13;;;24.70;99.90;;;;;;1043702;28;20020;-62
2022/07/26 00:19:00;;;;;;;2.97;1.00;;;24.80;99.90;;;;;;1043221;28;20429;-63
2022/07/26 00:19:31;;;;;;;5.00;1.57;;;24.70;99.90;;;;;;1043620;28;20035;-62
2022/07/26 00:20:02;;;;;;;3.00;1.47;;;24.70;99.90;;;;;;1043244;28;20061;-62
2022/07/26 00:20:33;;;;;;;2.33;1.17;;;24.70;99.90;;;;;;1043650;28;20013;-62
2022/07/26 00:21:04;;;;;;;4.37;1.20;;;24.70;99.90;;;;;;1043257;28;20025;-62
2022/07/26 00:21:36;;;;;;;4.38;1.50;;;24.70;99.90;;;;;;1043846;28;20096;-62
2022/07/26 00:22:55;;;;;;;2.83;1.55;;;24.70;99.90;;;;;;1043441;28;20048;-64
2022/07/26 00:23:27;;;;;;;3.17;1.17;;;24.80;99.90;;;;;;1043590;28;20625;-63
2022/07/26 00:23:58;;;;;;;3.65;1.75;;;24.80;99.90;;;;;;1043292;28;20100;-63
2022/07/26 00:24:28;;;;;;;4.07;1.20;;;24.80;99.90;;;;;;1043848;28;20013;-64
2022/07/26 00:24:59;;;;;;;2.77;1.33;;;24.70;99.90;;;;;;1043384;28;20430;-64
2022/07/26 00:25:29;;;;;;;5.90;1.70;;;24.70;99.90;;;;;;1043397;28;20472;-61
2022/07/26 00:26:00;;;;;;;3.53;1.40;;;24.80;99.90;;;;;;1043417;28;20017;-62
2022/07/26 00:26:32;;;;;;;2.37;1.17;;;24.70;99.90;;;;;;1043418;28;20059;-62
2022/07/26 00:27:03;;;;;;;3.85;1.55;;;24.70;99.90;;;;;;1043451;28;20017;-62
2022/07/26 00:27:37;;;;;;;4.83;1.80;;;24.70;99.90;;;;;;1043322;28;20020;-63
2022/07/26 00:28:07;;;;;;;2.67;1.20;;;24.70;99.90;;;;;;1043305;28;20568;-61
2022/07/26 00:28:40;;;;;;;3.93;1.60;;;24.70;99.90;;;;;;1043211;28;20601;-62
2022/07/26 00:29:10;;;;;;;4.53;1.45;;;24.70;99.90;;;;;;1042826;28;20737;-62
2022/07/26 00:29:41;;;;;;;2.93;1.30;;;24.70;99.90;;;;;;1038861;28;20115;-62
2022/07/26 00:30:13;;;;;;;3.40;1.37;;;24.70;99.90;;;;;;1039046;28;20720;-62
2022/07/26 00:30:43;;;;;;;4.90;1.50;;;24.70;99.90;;;;;;1039248;28;20075;-62
2022/07/26 00:31:14;;;;;;;2.87;1.33;;;24.70;99.90;;;;;;1043071;28;20194;-62
2022/07/26 00:31:44;;;;;;;3.20;1.30;;;24.70;99.90;;;;;;1043330;28;20040;-62
2022/07/26 00:32:15;;;;;;;3.97;1.50;;;24.70;99.90;;;;;;1043513;28;20032;-62
2022/07/26 00:32:45;;;;;;;2.33;1.20;;;24.70;99.90;;;;;;1043251;28;20053;-62
2022/07/26 00:33:16;;;;;;;3.13;1.47;;;24.70;99.90;;;;;;1043552;28;20025;-62
2022/07/26 00:33:46;;;;;;;3.53;1.20;;;24.70;99.90;;;;;;1043263;28;20020;-62
2022/07/26 00:34:17;;;;;;;3.97;2.07;;;24.70;99.90;;;;;;1043443;28;20025;-62
2022/07/26 00:34:48;;;;;;;2.93;1.30;;;24.70;99.90;;;;;;1043275;28;20522;-62
2022/07/26 00:35:19;;;;;;;2.67;1.30;;;24.70;99.90;;;;;;1043557;28;20612;-62
2022/07/26 00:35:50;;;;;;;2.63;1.20;;;24.70;99.90;;;;;;1043054;28;20028;-62
2022/07/26 00:36:20;;;;;;;3.83;1.30;;;24.70;99.90;;;;;;1043596;28;20017;-62
2022/07/26 00:36:51;;;;;;;2.70;1.40;;;24.70;99.90;;;;;;1043186;28;20648;-62
2022/07/26 00:37:21;;;;;;;2.73;1.10;;;24.70;99.90;;;;;;1043668;28;20043;-62
2022/07/26 00:37:52;;;;;;;4.93;1.93;;;24.70;99.90;;;;;;1043141;28;20636;-62
2022/07/26 00:38:23;;;;;;;2.93;1.83;;;24.70;99.90;;;;;;1043638;28;20029;-62
2022/07/26 00:38:53;;;;;;;3.43;1.53;;;24.70;99.90;;;;;;1043163;28;20017;-62
2022/07/26 00:39:24;;;;;;;3.53;1.33;;;24.70;99.90;;;;;;1043628;28;20484;-62
2022/07/26 00:39:54;;;;;;;2.40;1.23;;;24.70;99.90;;;;;;1043159;28;20430;-62
2022/07/26 00:40:25;;;;;;;3.63;1.40;;;24.70;99.90;;;;;;1043572;28;20024;-62
2022/07/26 00:40:56;;;;;;;2.10;1.03;;;24.60;99.90;;;;;;1043271;28;20457;-62
2022/07/26 00:41:26;;;;;;;2.77;1.10;;;24.60;99.90;;;;;;1043590;28;20484;-62
2022/07/26 00:41:57;;;;;;;3.10;1.40;;;24.70;99.90;;;;;;1043066;28;20140;-61
2022/07/26 00:42:27;;;;;;;5.13;2.03;;;24.60;99.90;;;;;;1043572;28;20040;-62
2022/07/26 00:42:58;;;;;;;3.70;1.03;;;24.60;99.90;;;;;;1043189;28;20021;-62
2022/07/26 00:43:28;;;;;;;7.70;1.97;;;24.60;99.90;;;;;;1043577;28;20040;-63
2022/07/26 00:44:00;;;;;;;3.23;1.60;;;24.60;99.90;;;;;;1043151;28;20016;-62
2022/07/26 00:44:39;;;;;;;2.22;1.25;;;24.60;99.90;;;;;;1043499;28;20045;-62
2022/07/26 00:45:10;;;;;;;3.83;1.75;;;24.60;99.90;;;;;;1043016;28;20032;-62
2022/07/26 00:45:41;;;;;;;3.80;1.35;;;24.60;99.90;;;;;;1043521;28;20424;-61
2022/07/26 00:46:12;;;;;;;3.30;1.40;;;24.60;99.90;;;;;;1043031;28;20468;-61
2022/07/26 00:46:43;;;;;;;3.40;1.40;;;24.60;99.90;;;;;;1043647;28;20025;-62
2022/07/26 00:47:14;;;;;;;5.55;1.30;;;24.60;99.90;;;;;;1043076;28;20021;-61
2022/07/26 00:47:44;;;;;;;4.05;1.70;;;24.60;99.90;;;;;;1043488;28;20025;-62
2022/07/26 00:48:16;;;;;;;2.60;1.20;;;24.60;99.90;;;;;;1043017;28;20021;-62
2022/07/26 00:48:47;;;;;;;3.70;1.40;;;24.60;99.90;;;;;;1043550;28;20024;-62
2022/07/26 00:49:17;;;;;;;3.50;1.20;;;24.60;99.90;;;;;;1043131;28;20045;-62
2022/07/26 00:49:48;;;;;;;4.00;1.20;;;24.60;99.90;;;;;;1043457;28;20035;-62
2022/07/26 00:50:19;;;;;;;3.03;1.10;;;24.60;99.90;;;;;;1043232;28;20469;-62
2022/07/26 00:50:52;;;;;;;4.37;1.33;;;24.60;99.90;;;;;;1043275;28;20028;-62
2022/07/26 00:51:23;;;;;;;3.25;1.30;;;24.60;99.90;;;;;;1043182;28;20013;-62
2022/07/26 00:51:54;;;;;;;4.30;1.67;;;24.60;99.90;;;;;;1043312;28;20025;-62
2022/07/26 00:52:24;;;;;;;2.07;1.10;;;24.60;99.90;;;;;;1043202;28;20048;-62
2022/07/26 00:52:55;;;;;;;2.60;1.23;;;24.60;99.90;;;;;;1043246;28;20017;-62
2022/07/26 00:53:26;;;;;;;4.53;1.57;;;24.60;99.90;;;;;;1043404;28;20022;-62
2022/07/26 00:53:56;;;;;;;1.67;1.00;;;24.60;99.90;;;;;;1043069;28;20021;-62
2022/07/26 00:54:27;;;;;;;4.70;1.43;;;24.60;99.90;;;;;;1043503;28;20028;-61
2022/07/26 00:54:58;;;;;;;3.83;1.60;;;24.60;99.90;;;;;;1042797;28;20384;-62
2022/07/26 00:55:29;;;;;;;5.47;1.63;;;24.60;99.90;;;;;;1043282;28;20260;-62
2022/07/26 00:55:59;;;;;;;3.77;1.43;;;24.60;99.90;;;;;;1042409;28;20092;-62
2022/07/26 00:56:32;;;;;;;3.57;1.30;;;24.60;99.90;;;;;;1043105;28;20521;-62
2022/07/26 00:57:03;;;;;;;3.40;1.60;;;24.60;99.90;;;;;;1043224;28;20116;-62
2022/07/26 00:57:34;;;;;;;5.40;1.50;;;24.60;99.90;;;;;;1043389;28;20017;-61
2022/07/26 00:58:05;;;;;;;2.10;1.10;;;24.60;99.90;;;;;;1043110;28;20013;-61
2022/07/26 00:58:36;;;;;;;3.40;1.40;;;24.50;99.90;;;;;;1043505;28;20009;-61
2022/07/26 00:59:06;;;;;;;2.87;1.20;;;24.60;99.90;;;;;;1043164;28;20017;-62
2022/07/26 00:59:37;;;;;;;3.50;1.30;;;24.50;99.90;;;;;;1043320;28;20624;-63
2022/07/26 01:00:11;;;;;;;3.77;1.50;;;24.50;99.90;;;;;;1043037;28;20025;-63
2022/07/26 01:00:42;;;;;;;2.70;1.15;;;24.50;99.90;;;;;;1043499;28;20357;-63
2022/07/26 01:01:12;;;;;;;2.40;1.27;;;24.50;99.90;;;;;;1043160;28;20718;-63
2022/07/26 01:01:43;;;;;;;1.37;1.20;;;24.50;99.90;;;;;;1043473;28;20420;-61
2022/07/26 01:02:14;;;;;;;3.27;1.50;;;24.50;99.90;;;;;;1040718;28;20618;-62
2022/07/26 01:02:45;;;;;;;4.28;1.70;;;24.50;99.90;;;;;;1043448;28;20029;-63
2022/07/26 01:03:16;;;;;;;2.80;1.43;;;24.50;99.90;;;;;;1043038;28;20112;-63
2022/07/26 01:03:50;;;;;;;3.10;1.40;;;24.50;99.90;;;;;;1043314;28;20290;-63
2022/07/26 01:04:21;;;;;;;2.40;1.10;;;24.50;99.90;;;;;;1043275;28;20017;-64
2022/07/26 01:04:51;;;;;;;3.57;1.53;;;24.50;99.90;;;;;;1043396;28;20045;-63
2022/07/26 01:05:23;;;;;;;3.30;1.43;;;24.50;99.90;;;;;;1043197;28;20158;-63
2022/07/26 01:05:53;;;;;;;3.83;1.85;;;24.50;99.90;;;;;;1042867;28;20009;-62
2022/07/26 01:06:24;;;;;;;1.97;1.40;;;24.50;99.90;;;;;;1042878;28;20044;-63
2022/07/26 01:06:55;;;;;;;6.10;1.50;;;24.50;99.90;;;;;;1042982;28;20016;-63
2022/07/26 01:07:26;;;;;;;3.95;1.40;;;24.50;99.90;;;;;;1042813;28;20080;-63
2022/07/26 01:07:57;;;;;;;2.88;1.27;;;24.50;99.90;;;;;;1043124;28;20017;-63
2022/07/26 01:08:28;;;;;;;4.50;1.45;;;24.50;99.90;;;;;;1043276;28;20109;-63
2022/07/26 01:08:59;;;;;;;5.07;1.50;;;24.50;99.90;;;;;;1043281;28;20032;-63
2022/07/26 01:09:30;;;;;;;2.75;1.23;;;24.50;99.90;;;;;;1043194;28;20025;-63
2022/07/26 01:10:02;;;;;;;5.03;1.63;;;24.50;99.90;;;;;;1043349;28;20028;-63
2022/07/26 01:10:32;;;;;;;3.35;1.55;;;24.50;99.90;;;;;;1043051;28;20239;-63
2022/07/26 01:11:03;;;;;;;6.10;1.57;;;24.50;99.90;;;;;;1043543;28;20082;-62
2022/07/26 01:11:33;;;;;;;3.30;1.40;;;24.50;99.90;;;;;;1043211;28;20083;-62
2022/07/26 01:12:05;;;;;;;2.97;1.30;;;24.50;99.90;;;;;;1043256;28;20114;-62
2022/07/26 01:12:35;;;;;;;3.03;1.23;;;24.50;99.90;;;;;;1043080;28;20092;-62
2022/07/26 01:13:06;;;;;;;2.77;1.50;;;24.50;99.90;;;;;;1043361;28;20025;-62
2022/07/26 01:13:36;;;;;;;5.13;1.57;;;24.50;99.90;;;;;;1042915;28;20025;-62
2022/07/26 01:14:07;;;;;;;3.83;1.57;;;24.50;99.90;;;;;;1042888;28;20587;-62
2022/07/26 01:14:40;;;;;;;2.53;1.20;;;24.50;99.90;;;;;;1041664;28;20534;-62
2022/07/26 01:15:12;;;;;;;2.85;1.17;;;24.50;99.90;;;;;;1038776;28;20536;-64
2022/07/26 01:15:43;;;;;;;2.72;1.60;;;24.50;99.90;;;;;;1038785;28;20492;-62
2022/07/26 01:16:13;;;;;;;3.30;1.50;;;24.40;99.90;;;;;;1039168;28;20449;-62
2022/07/26 01:16:44;;;;;;;3.30;1.23;;;24.40;99.90;;;;;;1039168;28;20405;-62
2022/07/26 01:17:15;;;;;;;2.67;1.60;;;24.40;99.90;;;;;;1039227;28;20473;-62
2022/07/26 01:17:46;;;;;;;3.87;1.77;;;24.50;99.90;;;;;;1038864;28;20107;-62
2022/07/26 01:18:16;;;;;;;3.45;1.35;;;24.50;99.90;;;;;;1039208;28;20079;-62
2022/07/26 01:18:47;;;;;;;2.37;1.30;;;24.50;99.90;;;;;;1039059;28;20079;-62
2022/07/26 01:19:18;;;;;;;3.10;1.33;;;24.50;99.90;;;;;;1039189;28;20104;-63
2022/07/26 01:19:49;;;;;;;2.80;1.40;;;24.50;99.90;;;;;;1038905;28;20457;-61
2022/07/26 01:20:20;;;;;;;3.87;1.50;;;24.50;99.90;;;;;;1039291;28;20485;-61
2022/07/26 01:20:51;;;;;;;3.30;1.53;;;24.50;99.90;;;;;;1038839;28;20717;-64
2022/07/26 01:21:27;;;;;;;4.45;1.60;;;24.50;99.90;;;;;;1039313;28;20025;-63
2022/07/26 01:21:58;;;;;;;2.45;1.08;;;24.50;99.90;;;;;;1038778;28;20025;-63
2022/07/26 01:22:29;;;;;;;3.97;2.03;;;24.50;99.90;;;;;;1038904;28;20021;-63
2022/07/26 01:22:59;;;;;;;6.03;1.73;;;24.40;99.90;;;;;;1038586;28;20472;-62
2022/07/26 01:23:30;;;;;;;2.30;1.10;;;24.40;99.90;;;;;;1039002;28;20377;-62
2022/07/26 01:24:01;;;;;;;4.33;1.60;;;24.40;99.90;;;;;;1038363;28;20068;-62
2022/07/26 01:24:31;;;;;;;3.90;1.17;;;24.40;99.90;;;;;;1040235;28;20022;-62
2022/07/26 01:25:03;;;;;;;2.00;0.83;;;24.40;99.90;;;;;;1043040;28;20024;-62
2022/07/26 01:25:38;;;;;;;3.78;1.55;;;24.40;99.90;;;;;;1043228;28;20060;-62
2022/07/26 01:26:09;;;;;;;2.92;1.33;;;24.40;99.90;;;;;;1042516;28;20524;-62
2022/07/26 01:26:40;;;;;;;3.28;1.35;;;24.40;99.90;;;;;;1043062;28;20028;-62
2022/07/26 01:27:11;;;;;;;3.33;1.60;;;24.40;99.90;;;;;;1042497;28;20017;-62
2022/07/26 01:27:42;;;;;;;3.87;1.37;;;24.40;99.90;;;;;;1043025;28;20108;-62
2022/07/26 01:28:12;;;;;;;3.20;1.20;;;24.40;99.90;;;;;;1042745;28;20048;-62
2022/07/26 01:28:45;;;;;;;3.07;1.17;;;24.40;99.90;;;;;;1043327;28;20029;-62
2022/07/26 01:29:15;;;;;;;2.25;1.30;;;24.40;99.90;;;;;;1042986;28;20017;-62
2022/07/26 01:29:46;;;;;;;2.50;1.20;;;24.40;99.90;;;;;;1043301;28;20055;-62
2022/07/26 01:30:17;;;;;;;3.10;1.50;;;24.40;99.90;;;;;;1043040;28;20032;-62
2022/07/26 01:30:48;;;;;;;3.77;1.70;;;24.40;99.90;;;;;;1043337;28;20132;-62
2022/07/26 01:31:18;;;;;;;4.30;1.48;;;24.40;99.90;;;;;;1042933;28;20060;-62
2022/07/26 01:31:49;;;;;;;6.00;1.90;;;24.40;99.90;;;;;;1043321;28;20021;-62
2022/07/26 01:32:20;;;;;;;4.82;1.55;;;24.40;99.90;;;;;;1043114;28;20009;-62
2022/07/26 01:32:51;;;;;;;3.70;1.90;;;24.40;99.90;;;;;;1042673;28;20024;-61
2022/07/26 01:33:21;;;;;;;3.73;1.53;;;24.40;99.90;;;;;;1038605;28;20466;-62
2022/07/26 01:33:52;;;;;;;3.90;1.40;;;24.40;99.90;;;;;;1038413;28;20021;-62
2022/07/26 01:34:22;;;;;;;3.40;1.30;;;24.40;99.90;;;;;;1038831;28;20027;-63
2022/07/26 01:34:53;;;;;;;2.77;1.00;;;24.40;99.90;;;;;;1042720;28;20105;-62
2022/07/26 01:35:24;;;;;;;2.43;1.10;;;24.40;99.90;;;;;;1042856;28;20050;-62
2022/07/26 01:35:54;;;;;;;3.03;1.20;;;24.40;99.90;;;;;;1042984;28;20726;-62
2022/07/26 01:36:25;;;;;;;4.00;1.70;;;24.40;99.90;;;;;;1043264;28;20047;-62
2022/07/26 01:36:56;;;;;;;3.13;1.53;;;24.40;99.90;;;;;;1042839;28;20025;-63
2022/07/26 01:37:26;;;;;;;3.87;1.50;;;24.40;99.90;;;;;;1043336;28;20028;-62
2022/07/26 01:37:57;;;;;;;2.73;1.50;;;24.40;99.90;;;;;;1042855;28;20228;-63
2022/07/26 01:38:28;;;;;;;2.40;1.10;;;24.40;99.90;;;;;;1043367;28;20025;-62
2022/07/26 01:38:58;;;;;;;3.00;1.50;;;24.40;99.90;;;;;;1042899;28;20032;-62
2022/07/26 01:39:29;;;;;;;2.87;1.40;;;24.40;99.90;;;;;;1043428;28;20519;-62
2022/07/26 01:39:59;;;;;;;3.10;1.20;;;24.40;99.90;;;;;;1042813;28;20031;-62
2022/07/26 01:40:30;;;;;;;2.80;1.53;;;24.40;99.90;;;;;;1043294;28;20017;-62
2022/07/26 01:41:01;;;;;;;2.30;1.10;;;24.40;99.90;;;;;;1042903;28;20162;-63
2022/07/26 01:41:31;;;;;;;2.53;1.10;;;24.40;99.90;;;;;;1043389;28;20074;-63
2022/07/26 01:42:02;;;;;;;4.33;1.53;;;24.40;99.90;;;;;;1042925;28;20044;-64
2022/07/26 01:42:33;;;;;;;2.80;1.40;;;24.40;99.90;;;;;;1043444;28;20086;-62
2022/07/26 01:43:03;;;;;;;3.67;1.40;;;24.40;99.90;;;;;;1042830;28;20567;-63
2022/07/26 01:43:34;;;;;;;5.20;1.63;;;24.40;99.90;;;;;;1040278;28;20074;-62
2022/07/26 01:44:06;;;;;;;3.42;1.80;;;24.40;99.90;;;;;;1038709;28;20040;-63
2022/07/26 01:44:36;;;;;;;2.38;1.33;;;24.40;99.90;;;;;;1039273;28;20033;-63
2022/07/26 01:45:09;;;;;;;3.63;1.50;;;24.40;99.90;;;;;;1038726;28;20036;-63
2022/07/26 01:45:40;;;;;;;3.83;1.58;;;24.40;99.90;;;;;;1039159;28;20069;-62
2022/07/26 01:46:12;;;;;;;3.73;1.63;;;24.40;99.90;;;;;;1038664;28;20393;-62
2022/07/26 01:46:42;;;;;;;3.15;1.20;;;24.40;99.90;;;;;;1039215;28;20674;-62
2022/07/26 01:47:13;;;;;;;4.70;1.53;;;24.40;99.90;;;;;;1038888;28;20555;-62
2022/07/26 01:47:48;;;;;;;2.80;1.37;;;24.40;99.90;;;;;;1039125;28;20608;-62
2022/07/26 01:48:19;;;;;;;2.70;1.30;;;24.40;99.90;;;;;;1038569;28;20026;-63
2022/07/26 01:48:51;;;;;;;3.47;1.63;;;24.30;99.90;;;;;;1039156;28;20096;-62
2022/07/26 01:49:21;;;;;;;2.42;1.48;;;24.30;99.90;;;;;;1038651;28;20014;-62
2022/07/26 01:49:52;;;;;;;4.07;1.83;;;24.30;99.90;;;;;;1039092;28;20036;-63
2022/07/26 01:50:23;;;;;;;2.53;1.23;;;24.30;99.90;;;;;;1038893;28;20022;-63
2022/07/26 01:50:53;;;;;;;5.37;1.60;;;24.30;99.90;;;;;;1038600;28;20149;-63
2022/07/26 01:51:24;;;;;;;2.73;1.40;;;24.30;99.90;;;;;;1038601;28;20085;-62
2022/07/26 01:51:54;;;;;;;5.40;2.07;;;24.30;99.90;;;;;;1038602;28;20021;-62
2022/07/26 01:52:26;;;;;;;3.10;1.57;;;24.30;99.90;;;;;;1038520;28;20018;-65
2022/07/26 01:52:56;;;;;;;3.10;1.40;;;24.30;99.90;;;;;;1039039;28;20104;-62
2022/07/26 01:53:27;;;;;;;2.93;1.27;;;24.30;99.90;;;;;;1038923;28;20025;-63
2022/07/26 01:53:58;;;;;;;4.03;1.48;;;24.30;99.90;;;;;;1038894;28;20029;-62
2022/07/26 01:54:29;;;;;;;3.45;1.52;;;24.30;99.90;;;;;;1038885;28;20026;-62
2022/07/26 01:55:00;;;;;;;3.93;1.50;;;24.30;99.90;;;;;;1038589;28;20041;-62
2022/07/26 01:55:30;;;;;;;2.17;1.23;;;24.30;99.90;;;;;;1038942;28;20116;-63
2022/07/26 01:56:01;;;;;;;3.70;1.50;;;24.30;99.90;;;;;;1039047;28;20091;-63
2022/07/26 01:56:31;;;;;;;4.97;1.50;;;24.30;99.90;;;;;;1038915;28;20022;-62
2022/07/26 01:57:02;;;;;;;3.67;1.97;;;24.30;99.90;;;;;;1038937;28;20021;-63
2022/07/26 01:57:33;;;;;;;3.37;1.70;;;24.20;99.90;;;;;;1038937;28;20500;-63
2022/07/26 01:58:04;;;;;;;3.90;1.47;;;24.30;99.90;;;;;;1038847;28;20017;-62
2022/07/26 01:58:35;;;;;;;4.07;1.20;;;24.30;99.90;;;;;;1038976;28;20048;-62
2022/07/26 01:59:05;;;;;;;4.17;1.43;;;24.20;99.90;;;;;;1038944;28;20017;-62
2022/07/26 01:59:36;;;;;;;2.43;1.23;;;24.20;99.90;;;;;;1039061;28;20159;-63
2022/07/26 02:00:07;;;;;;;3.37;1.27;;;24.30;99.90;;;;;;1038937;28;20147;-62
2022/07/26 02:00:37;;;;;;;6.28;1.45;;;24.30;99.90;;;;;;1039020;28;20628;-62
2022/07/26 02:01:08;;;;;;;3.10;1.50;;;24.30;99.90;;;;;;1038923;28;20469;-63
2022/07/26 02:01:39;;;;;;;4.33;2.13;;;24.30;99.90;;;;;;1038926;28;20104;-62
2022/07/26 02:02:10;;;;;;;5.73;1.70;;;24.20;99.90;;;;;;1039552;28;20022;-63
2022/07/26 02:02:41;;;;;;;4.15;1.80;;;24.20;99.90;;;;;;1043271;28;20071;-62
2022/07/26 02:03:12;;;;;;;4.17;1.30;;;24.20;99.90;;;;;;1042767;28;20021;-62
2022/07/26 02:03:42;;;;;;;3.93;1.60;;;24.20;99.90;;;;;;1043228;28;20021;-62
2022/07/26 02:04:57;;;;;;;4.30;1.90;;;24.20;99.90;;;;;;1042829;28;20092;-62
2022/07/26 02:05:04;;;;;;;3.97;1.60;;;24.20;99.90;;;;;;1042905;28;20029;-62
2022/07/26 02:05:35;;;;;;;6.90;1.80;;;24.20;99.90;;;;;;1043213;28;20065;-62
2022/07/26 02:06:06;;;;;;;2.20;1.27;;;24.20;99.90;;;;;;1042815;28;20154;-63
2022/07/26 02:06:36;;;;;;;1.80;1.17;;;24.20;99.90;;;;;;1043324;28;20052;-62
2022/07/26 02:07:07;;;;;;;2.33;1.40;;;24.20;99.90;;;;;;1042651;28;20032;-62
2022/07/26 02:07:39;;;;;;;4.17;1.60;;;24.20;99.90;;;;;;1043026;28;20116;-62
2022/07/26 02:08:10;;;;;;;3.45;1.90;;;24.20;99.90;;;;;;1042637;28;20021;-62
2022/07/26 02:08:41;;;;;;;4.53;2.00;;;24.20;99.90;;;;;;1043221;28;20028;-62
2022/07/26 02:09:11;;;;;;;4.37;1.23;;;24.20;99.90;;;;;;1042815;28;20124;-61
2022/07/26 02:09:42;;;;;;;3.60;1.70;;;24.20;99.90;;;;;;1043173;28;20059;-62
2022/07/26 02:10:14;;;;;;;2.40;1.33;;;24.20;99.90;;;;;;1042867;28;20027;-63
2022/07/26 02:11:00;;;;;;;4.70;1.30;;;24.20;99.90;;;;;;1043230;28;20763;-61
2022/07/26 02:11:30;;;;;;;3.10;1.00;;;24.20;99.90;;;;;;1038820;28;20221;-63
2022/07/26 02:12:02;;;;;;;2.37;1.30;;;24.20;99.90;;;;;;1038961;28;20028;-63
2022/07/26 02:12:32;;;;;;;3.03;1.30;;;24.20;99.90;;;;;;1038831;28;20053;-63
2022/07/26 02:13:03;;;;;;;2.83;1.47;;;24.20;99.90;;;;;;1038927;28;20037;-63
2022/07/26 02:13:38;;;;;;;3.87;1.20;;;24.20;99.90;;;;;;1038778;28;20018;-62
2022/07/26 02:14:08;;;;;;;2.55;1.50;;;24.20;99.90;;;;;;1038900;28;20124;-63
2022/07/26 02:14:39;;;;;;;4.57;1.70;;;24.20;99.90;;;;;;1038819;28;20053;-63
2022/07/26 02:15:11;;;;;;;3.70;1.27;;;24.10;99.90;;;;;;1038990;28;20102;-63
2022/07/26 02:15:41;;;;;;;3.47;1.40;;;24.20;99.90;;;;;;1038740;28;20053;-63
2022/07/26 02:16:13;;;;;;;3.20;1.43;;;24.20;99.90;;;;;;1038842;28;20017;-62
2022/07/26 02:16:44;;;;;;;3.70;1.45;;;24.20;99.90;;;;;;1038898;28;20029;-63
2022/07/26 02:17:15;;;;;;;4.20;1.63;;;24.20;99.90;;;;;;1038393;28;20017;-63
2022/07/26 02:17:46;;;;;;;2.33;1.40;;;24.20;99.90;;;;;;1038391;28;20029;-62
2022/07/26 02:18:16;;;;;;;3.20;1.53;;;24.10;99.90;;;;;;1038525;28;20096;-62
2022/07/26 02:18:47;;;;;;;5.50;1.70;;;24.20;99.90;;;;;;1038516;28;20036;-62
2022/07/26 02:19:17;;;;;;;3.67;1.50;;;24.10;99.90;;;;;;1038893;28;20038;-61
2022/07/26 02:19:48;;;;;;;3.77;1.80;;;24.20;99.90;;;;;;1038732;28;20017;-61
2022/07/26 02:20:19;;;;;;;5.23;1.40;;;24.10;99.90;;;;;;1038928;28;20370;-61
2022/07/26 02:20:49;;;;;;;2.90;1.33;;;24.20;99.90;;;;;;1035405;28;20022;-62
2022/07/26 02:21:20;;;;;;;2.77;1.70;;;24.20;99.90;;;;;;1038764;28;20018;-61
2022/07/26 02:21:51;;;;;;;3.00;1.53;;;24.20;99.90;;;;;;1034106;28;20029;-62
2022/07/26 02:22:21;;;;;;;3.57;1.40;;;24.20;99.90;;;;;;1034774;28;20022;-63
2022/07/26 02:22:52;;;;;;;3.10;1.37;;;24.20;99.90;;;;;;1042494;28;20037;-63
2022/07/26 02:23:26;;;;;;;2.97;1.60;;;24.10;99.90;;;;;;1042951;28;20024;-62
2022/07/26 02:23:57;;;;;;;2.88;1.50;;;24.10;99.90;;;;;;1042708;28;20104;-63
2022/07/26 02:24:28;;;;;;;3.23;1.13;;;24.10;99.90;;;;;;1042779;28;20025;-62
2022/07/26 02:24:59;;;;;;;3.27;1.53;;;24.10;99.90;;;;;;1042446;28;20025;-61
2022/07/26 02:25:29;;;;;;;3.13;1.87;;;24.10;99.90;;;;;;1042782;28;20267;-63
2022/07/26 02:26:00;;;;;;;6.90;2.40;;;24.10;99.90;;;;;;1042549;28;20021;-62
2022/07/26 02:26:31;;;;;;;6.72;1.83;;;24.10;99.90;;;;;;1043229;28;20017;-64
2022/07/26 02:27:02;;;;;;;2.80;1.27;;;24.10;99.90;;;;;;1042770;28;20017;-63
2022/07/26 02:27:33;;;;;;;4.80;1.85;;;24.10;99.90;;;;;;1042985;28;20052;-61
2022/07/26 02:28:03;;;;;;;3.60;1.57;;;24.10;99.90;;;;;;1042753;28;20012;-63
2022/07/26 02:28:34;;;;;;;4.40;1.63;;;24.10;99.90;;;;;;1043053;28;20028;-63
2022/07/26 02:29:06;;;;;;;3.87;1.20;;;24.10;99.90;;;;;;1042813;28;20063;-61
2022/07/26 02:29:37;;;;;;;3.58;1.83;;;24.10;99.90;;;;;;1042965;28;20017;-63
2022/07/26 02:30:08;;;;;;;3.10;1.30;;;24.10;99.90;;;;;;1042877;28;20220;-63
2022/07/26 02:30:39;;;;;;;3.78;1.45;;;24.10;99.90;;;;;;1042938;28;20054;-63
2022/07/26 02:31:09;;;;;;;4.40;1.60;;;24.10;99.90;;;;;;1042914;28;20039;-63
2022/07/26 02:31:40;;;;;;;3.70;1.60;;;24.10;99.90;;;;;;1043231;28;20017;-62
2022/07/26 02:32:10;;;;;;;2.70;1.20;;;24.10;99.90;;;;;;1042933;28;20457;-63
2022/07/26 02:32:42;;;;;;;3.43;1.33;;;24.10;99.90;;;;;;1043010;28;20476;-63
2022/07/26 02:33:13;;;;;;;3.58;1.27;;;24.10;99.90;;;;;;1042751;28;20137;-63
2022/07/26 02:33:44;;;;;;;2.80;1.25;;;24.10;99.90;;;;;;1042995;28;20365;-63
2022/07/26 02:34:15;;;;;;;4.17;1.50;;;24.10;99.90;;;;;;1043032;28;20683;-63
2022/07/26 02:34:46;;;;;;;3.75;1.52;;;24.10;99.90;;;;;;1042980;28;20056;-62
2022/07/26 02:35:16;;;;;;;3.87;1.47;;;24.10;99.90;;;;;;1042903;28;20088;-61
2022/07/26 02:35:47;;;;;;;2.60;1.30;;;24.10;99.90;;;;;;1042804;28;20755;-61
2022/07/26 02:36:17;;;;;;;5.10;1.63;;;24.10;99.90;;;;;;1042439;28;20475;-63
2022/07/26 02:36:48;;;;;;;4.40;1.93;;;24.10;99.90;;;;;;1042640;28;20024;-62
2022/07/26 02:37:19;;;;;;;3.33;1.70;;;24.10;99.90;;;;;;1042597;28;20092;-62
2022/07/26 02:37:49;;;;;;;4.00;1.57;;;24.10;99.90;;;;;;1042306;28;20178;-62
2022/07/26 02:38:20;;;;;;;3.43;1.73;;;24.10;99.90;;;;;;1043056;28;20471;-62
2022/07/26 02:38:50;;;;;;;3.50;1.30;;;24.10;99.90;;;;;;1042635;28;20028;-62
2022/07/26 02:39:26;;;;;;;2.70;1.40;;;24.10;99.90;;;;;;1043182;28;20037;-62
2022/07/26 02:39:56;;;;;;;4.15;1.58;;;24.10;99.90;;;;;;1038499;28;20107;-62
2022/07/26 02:40:27;;;;;;;1.97;1.07;;;24.10;99.90;;;;;;1038980;28;20017;-62
2022/07/26 02:40:58;;;;;;;3.70;1.30;;;24.10;99.90;;;;;;1038637;28;20018;-62
2022/07/26 02:41:28;;;;;;;1.77;1.20;;;24.10;99.90;;;;;;1039066;28;20021;-62
2022/07/26 02:42:01;;;;;;;3.17;1.23;;;24.10;99.90;;;;;;1038447;28;20022;-62
2022/07/26 02:42:32;;;;;;;2.50;1.33;;;24.10;99.90;;;;;;1038937;28;20048;-62
2022/07/26 02:43:04;;;;;;;3.45;1.40;;;24.10;99.90;;;;;;1038585;28;20014;-62